Time;durP1;ratioP1;P1;durP2;ratioP2;P2;SDS_P1;SDS_P2;PMS_P1;PMS_P2;Temp;Humidity;BMP_temperature;BMP_pressure;BME280_temperature;BME280_humidity;BME280_pressure;Samples;Min_cycle;Max_cycle;Signal;HPM_P1;HPM_P2
2022/11/18 00:01:10;;;;;;;9.65;5.65;;;;;;;;;;6242981;23;20023;-79
2022/11/18 00:03:36;;;;;;;10.88;6.30;;;;;;;;;;6268710;22;20012;-79
2022/11/18 00:06:01;;;;;;;10.35;6.70;;;;;;;;;;6268448;22;20015;-79
2022/11/18 00:08:27;;;;;;;11.13;6.22;;;;;;;;;;6244602;23;20009;-78
2022/11/18 00:10:52;;;;;;;10.73;6.63;;;;;;;;;;6268707;22;20428;-79
2022/11/18 00:16:06;;;;;;;10.85;6.35;;;;;;;;;;6244571;22;19907;-79
2022/11/18 00:18:31;;;;;;;11.60;6.20;;;;;;;;;;6269308;22;19996;-79
2022/11/18 00:21:02;;;;;;;9.38;6.47;;;;;;;;;;6242914;23;20012;-78
2022/11/18 00:23:27;;;;;;;11.32;6.28;;;;;;;;;;6268357;22;20011;-79
2022/11/18 00:25:53;;;;;;;12.82;7.05;;;;;;;;;;6268185;22;20004;-79
2022/11/18 00:28:18;;;;;;;10.50;6.28;;;;;;;;;;6268065;22;20008;-78
2022/11/18 00:30:44;;;;;;;12.65;6.80;;;;;;;;;;6242926;23;19996;-79
2022/11/18 00:33:09;;;;;;;11.88;6.95;;;;;;;;;;6244332;23;20065;-78
2022/11/18 00:35:35;;;;;;;11.10;6.32;;;;;;;;;;6217292;23;20336;-78
2022/11/18 00:38:00;;;;;;;13.73;6.22;;;;;;;;;;6244056;22;20112;-79
2022/11/18 00:40:26;;;;;;;10.65;6.80;;;;;;;;;;6242665;22;20004;-78
2022/11/18 00:42:52;;;;;;;7.97;5.75;;;;;;;;;;6244400;23;20475;-78
2022/11/18 00:45:17;;;;;;;;;;;;;;;;;;6244957;22;20000;-79
2022/11/18 00:47:43;;;;;;;11.38;7.15;;;;;;;;;;6244119;23;19911;-80
2022/11/18 00:50:08;;;;;;;9.25;6.63;;;;;;;;;;6244823;22;20003;-78
2022/11/18 00:52:34;;;;;;;11.90;6.88;;;;;;;;;;6242619;22;20158;-78
2022/11/18 00:54:59;;;;;;;9.93;6.30;;;;;;;;;;6244120;22;20423;-78
2022/11/18 00:57:25;;;;;;;11.32;6.63;;;;;;;;;;6268245;22;20012;-78
2022/11/18 00:59:50;;;;;;;12.25;7.05;;;;;;;;;;6244013;22;20031;-79
2022/11/18 01:02:16;;;;;;;10.27;6.40;;;;;;;;;;6268543;22;20502;-79
2022/11/18 01:04:41;;;;;;;10.77;6.95;;;;;;;;;;6267938;22;20012;-79
2022/11/18 01:07:07;;;;;;;11.18;6.70;;;;;;;;;;6268197;22;20016;-80
2022/11/18 01:09:32;;;;;;;13.68;6.70;;;;;;;;;;6267663;22;20021;-79
2022/11/18 01:14:42;;;;;;;10.77;6.85;;;;;;;;;;6242596;23;20336;-79
2022/11/18 01:17:07;;;;;;;11.18;6.40;;;;;;;;;;6267767;22;20000;-79
2022/11/18 01:19:33;;;;;;;8.82;6.50;;;;;;;;;;6268411;22;20019;-79
2022/11/18 01:22:01;;;;;;;12.10;6.55;;;;;;;;;;6242955;23;20090;-79
2022/11/18 01:24:28;;;;;;;10.35;6.93;;;;;;;;;;6242078;23;20019;-79
2022/11/18 01:26:53;;;;;;;;;;;;;;;;;;6268670;22;20004;-79
2022/11/18 01:29:18;;;;;;;13.15;6.82;;;;;;;;;;6242644;23;19914;-80
2022/11/18 01:31:44;;;;;;;13.48;7.47;;;;;;;;;;6244184;23;20006;-79
2022/11/18 01:34:09;;;;;;;11.18;6.75;;;;;;;;;;6268015;22;20012;-79
2022/11/18 01:36:35;;;;;;;8.95;6.55;;;;;;;;;;6243951;22;20000;-78
2022/11/18 01:39:00;;;;;;;9.55;6.28;;;;;;;;;;6242643;23;20091;-79
2022/11/18 01:41:26;;;;;;;9.50;6.57;;;;;;;;;;6242410;23;20499;-79
2022/11/18 01:44:14;;;;;;;9.75;6.45;;;;;;;;;;6243694;23;20053;-79
2022/11/18 01:46:40;;;;;;;10.73;6.93;;;;;;;;;;6200167;22;20087;-79
2022/11/18 01:49:07;;;;;;;10.25;6.40;;;;;;;;;;6268011;22;20039;-79
2022/11/18 01:51:33;;;;;;;9.40;6.13;;;;;;;;;;6267488;22;20008;-79
2022/11/18 01:54:04;;;;;;;12.02;6.60;;;;;;;;;;6243724;22;20000;-79
2022/11/18 01:56:37;;;;;;;16.27;8.77;;;;;;;;;;6267922;22;20066;-80
2022/11/18 01:59:05;;;;;;;10.95;7.13;;;;;;;;;;6267628;22;20357;-80
2022/11/18 02:01:30;;;;;;;10.77;6.82;;;;;;;;;;6242842;23;20070;-77
2022/11/18 02:03:56;;;;;;;12.82;6.70;;;;;;;;;;6242327;23;20020;-80
2022/11/18 02:06:21;;;;;;;11.70;6.75;;;;;;;;;;6267778;22;20008;-80
2022/11/18 02:08:47;;;;;;;17.40;9.68;;;;;;;;;;6243703;22;20440;-79
2022/11/18 02:11:49;;;;;;;9.75;6.03;;;;;;;;;;6267563;22;20000;-80
2022/11/18 02:14:00;;;;;;;12.48;6.60;;;;;;;;;;6263635;22;20008;-80
2022/11/18 02:16:52;;;;;;;10.23;6.68;;;;;;;;;;6267746;22;20004;-79
2022/11/18 02:19:36;;;;;;;10.77;6.90;;;;;;;;;;6239211;22;20070;-79
2022/11/18 02:22:20;;;;;;;11.75;6.53;;;;;;;;;;6243568;23;20012;-79
2022/11/18 02:25:02;;;;;;;10.23;6.70;;;;;;;;;;6244145;23;20020;-79
2022/11/18 02:27:27;;;;;;;10.95;6.40;;;;;;;;;;6244025;23;20012;-79
2022/11/18 02:29:56;;;;;;;9.25;6.10;;;;;;;;;;6244069;23;20007;-79
2022/11/18 02:32:23;;;;;;;15.38;7.00;;;;;;;;;;6243843;22;20452;-80
2022/11/18 02:35:01;;;;;;;12.82;7.35;;;;;;;;;;6269241;22;20633;-79
2022/11/18 02:37:47;;;;;;;9.88;5.78;;;;;;;;;;6269719;22;20012;-80
2022/11/18 02:40:22;;;;;;;12.73;7.03;;;;;;;;;;6244153;23;20507;-79
2022/11/18 02:42:49;;;;;;;11.20;6.28;;;;;;;;;;6269863;22;20139;-79
2022/11/18 02:45:15;;;;;;;10.25;6.68;;;;;;;;;;6269740;22;20010;-79
2022/11/18 02:47:41;;;;;;;11.75;6.68;;;;;;;;;;6243493;23;20023;-79
2022/11/18 02:50:10;;;;;;;10.70;6.90;;;;;;;;;;6243730;23;20018;-79
2022/11/18 02:52:36;;;;;;;10.52;6.72;;;;;;;;;;6269649;22;20355;-79
2022/11/18 02:55:01;;;;;;;10.07;6.78;;;;;;;;;;6269674;22;19996;-80
2022/11/18 02:57:28;;;;;;;10.50;6.72;;;;;;;;;;6269577;22;20467;-79
2022/11/18 02:59:54;;;;;;;10.82;6.85;;;;;;;;;;6268936;22;20039;-79
2022/11/18 03:02:21;;;;;;;12.82;7.05;;;;;;;;;;6269530;22;20012;-79
2022/11/18 03:04:47;;;;;;;10.45;6.78;;;;;;;;;;6269181;22;20095;-79
2022/11/18 03:07:13;;;;;;;10.80;7.28;;;;;;;;;;6268723;22;20465;-79
2022/11/18 03:09:39;;;;;;;11.40;7.07;;;;;;;;;;6245116;22;20386;-79
2022/11/18 03:12:04;;;;;;;11.35;7.43;;;;;;;;;;6269344;22;20054;-79
2022/11/18 03:14:50;;;;;;;11.52;7.00;;;;;;;;;;6243630;23;19999;-79
2022/11/18 03:17:22;;;;;;;10.38;6.47;;;;;;;;;;6242961;23;20078;-79
2022/11/18 03:19:50;;;;;;;9.77;6.20;;;;;;;;;;6243314;23;20062;-78
2022/11/18 03:22:16;;;;;;;11.60;6.75;;;;;;;;;;6243603;23;20388;-79
2022/11/18 03:24:44;;;;;;;10.13;6.60;;;;;;;;;;6243921;22;20097;-78
2022/11/18 03:27:11;;;;;;;14.35;7.43;;;;;;;;;;6243720;23;20011;-80
2022/11/18 03:29:38;;;;;;;9.95;6.18;;;;;;;;;;6244610;23;20031;-80
2022/11/18 03:32:05;;;;;;;9.63;6.45;;;;;;;;;;6243609;23;20000;-79
2022/11/18 03:34:33;;;;;;;12.55;6.53;;;;;;;;;;6269237;22;20348;-79
2022/11/18 03:36:59;;;;;;;9.70;6.80;;;;;;;;;;6268710;22;20004;-79
2022/11/18 03:39:25;;;;;;;12.77;6.93;;;;;;;;;;6269197;22;20073;-79
2022/11/18 03:41:54;;;;;;;11.88;7.15;;;;;;;;;;6244314;22;20032;-82
2022/11/18 03:44:22;;;;;;;10.73;7.22;;;;;;;;;;6269871;22;20043;-80
2022/11/18 03:46:53;;;;;;;23.88;13.65;;;;;;;;;;6268661;22;20008;-81
2022/11/18 03:49:20;;;;;;;11.45;7.35;;;;;;;;;;6245014;22;20332;-79
2022/11/18 03:51:50;;;;;;;11.55;7.18;;;;;;;;;;6243028;23;20003;-79
2022/11/18 03:54:19;;;;;;;11.75;6.72;;;;;;;;;;6268731;22;20019;-80
2022/11/18 03:56:46;;;;;;;11.80;6.70;;;;;;;;;;6268996;22;20000;-80
2022/11/18 03:59:14;;;;;;;12.23;6.90;;;;;;;;;;6244694;22;20091;-78
2022/11/18 04:02:02;;;;;;;11.85;6.53;;;;;;;;;;6268672;22;20012;-79
2022/11/18 04:04:28;;;;;;;11.90;7.07;;;;;;;;;;6233044;22;20148;-79
2022/11/18 04:06:57;;;;;;;12.77;7.55;;;;;;;;;;6269165;22;20100;-79
2022/11/18 04:09:23;;;;;;;10.82;7.15;;;;;;;;;;6268169;22;20047;-79
2022/11/18 04:12:03;;;;;;;;;;;;;;;;;;6269229;22;20020;-79
2022/11/18 04:14:33;;;;;;;10.80;6.88;;;;;;;;;;6244087;23;19907;-79
2022/11/18 04:16:59;;;;;;;10.98;7.05;;;;;;;;;;6269125;22;20788;-79
2022/11/18 04:19:24;;;;;;;10.27;6.80;;;;;;;;;;6268408;22;20023;-78
2022/11/18 04:21:50;;;;;;;11.88;7.53;;;;;;;;;;6245055;22;20012;-78
2022/11/18 04:24:16;;;;;;;11.25;7.07;;;;;;;;;;6268177;22;20017;-79
2022/11/18 04:26:41;;;;;;;11.88;7.13;;;;;;;;;;6244865;22;20008;-79
2022/11/18 04:29:07;;;;;;;11.00;7.18;;;;;;;;;;6217977;23;20087;-80
2022/11/18 04:31:32;;;;;;;10.73;7.15;;;;;;;;;;6243110;23;19996;-80
2022/11/18 04:33:58;;;;;;;12.38;7.40;;;;;;;;;;6244515;22;20371;-78
2022/11/18 04:36:23;;;;;;;14.02;7.82;;;;;;;;;;6244993;23;20000;-79
2022/11/18 04:38:48;;;;;;;12.25;7.28;;;;;;;;;;6244190;23;20019;-79
2022/11/18 04:41:14;;;;;;;10.95;7.15;;;;;;;;;;6245434;22;20026;-79
2022/11/18 04:43:40;;;;;;;10.65;7.22;;;;;;;;;;6268569;22;20023;-79
2022/11/18 04:46:05;;;;;;;12.65;7.30;;;;;;;;;;6268218;22;20007;-79
2022/11/18 04:48:31;;;;;;;12.90;7.30;;;;;;;;;;6217333;23;20012;-79
2022/11/18 04:50:56;;;;;;;11.32;7.50;;;;;;;;;;6243971;23;20003;-79
2022/11/18 04:53:22;;;;;;;12.45;7.47;;;;;;;;;;6268234;22;20012;-81
2022/11/18 04:55:47;;;;;;;11.50;7.90;;;;;;;;;;6244416;22;20000;-81
2022/11/18 04:58:13;;;;;;;13.18;7.40;;;;;;;;;;6242916;22;20039;-80
2022/11/18 05:00:38;;;;;;;13.32;7.38;;;;;;;;;;6268968;22;20027;-78
2022/11/18 05:03:04;;;;;;;11.13;7.10;;;;;;;;;;6242805;23;20043;-79
2022/11/18 05:05:29;;;;;;;13.95;7.70;;;;;;;;;;6268596;22;20004;-79
2022/11/18 05:07:55;;;;;;;12.98;7.32;;;;;;;;;;6267707;22;20012;-80
2022/11/18 05:10:20;;;;;;;14.20;8.48;;;;;;;;;;6244389;22;20003;-79
2022/11/18 05:12:49;;;;;;;11.95;7.40;;;;;;;;;;6244375;23;20012;-79
2022/11/18 05:15:15;;;;;;;9.48;5.57;;;;;;;;;;6242856;23;20001;-81
2022/11/18 05:17:40;;;;;;;;;;;;;;;;;;6268267;22;20015;-79
2022/11/18 05:20:06;;;;;;;15.40;9.20;;;;;;;;;;6244632;22;19907;-79
2022/11/18 05:22:32;;;;;;;13.05;7.75;;;;;;;;;;6268367;22;20016;-79
2022/11/18 05:24:57;;;;;;;14.60;7.82;;;;;;;;;;6244714;22;20032;-80
2022/11/18 05:27:23;;;;;;;13.07;7.75;;;;;;;;;;6217585;23;20012;-80
2022/11/18 05:29:48;;;;;;;11.85;7.63;;;;;;;;;;6268896;22;20026;-79
2022/11/18 05:32:14;;;;;;;13.68;8.77;;;;;;;;;;6243966;22;20018;-81
2022/11/18 05:34:40;;;;;;;13.45;8.18;;;;;;;;;;6242924;22;20369;-81
2022/11/18 05:37:05;;;;;;;11.73;7.43;;;;;;;;;;6266980;22;20325;-78
2022/11/18 05:39:31;;;;;;;14.77;8.23;;;;;;;;;;6242868;23;20000;-80
2022/11/18 05:44:42;;;;;;;13.00;7.95;;;;;;;;;;6243940;23;20038;-80
2022/11/18 05:47:07;;;;;;;14.60;8.57;;;;;;;;;;6243877;22;20035;-80
2022/11/18 05:49:33;;;;;;;12.27;7.80;;;;;;;;;;6241061;23;20008;-80
2022/11/18 05:51:58;;;;;;;12.93;8.50;;;;;;;;;;6266458;22;20000;-80
2022/11/18 05:54:24;;;;;;;12.82;8.23;;;;;;;;;;6266586;22;20091;-78
2022/11/18 05:56:49;;;;;;;13.57;8.20;;;;;;;;;;6268676;22;20425;-79
2022/11/18 05:59:15;;;;;;;13.88;9.10;;;;;;;;;;6243120;23;20024;-80
2022/11/18 06:01:40;;;;;;;12.98;8.68;;;;;;;;;;6269110;22;20016;-79
2022/11/18 06:04:12;;;;;;;17.00;10.15;;;;;;;;;;6243489;22;20143;-79
2022/11/18 06:06:38;;;;;;;17.60;9.93;;;;;;;;;;6245424;23;20016;-81
2022/11/18 06:09:04;;;;;;;18.98;10.68;;;;;;;;;;6268947;22;19996;-81
2022/11/18 06:11:30;;;;;;;17.98;11.00;;;;;;;;;;6269543;22;20036;-80
2022/11/18 06:13:55;;;;;;;;;;;;;;;;;;6245616;22;20003;-79
2022/11/18 06:16:21;;;;;;;18.67;9.27;;;;;;;;;;6243301;23;19907;-79
2022/11/18 06:18:47;;;;;;;11.93;7.18;;;;;;;;;;6244657;22;20000;-80
2022/11/18 06:21:12;;;;;;;11.77;7.85;;;;;;;;;;6243435;23;20074;-80
2022/11/18 06:23:38;;;;;;;14.80;7.47;;;;;;;;;;6268896;22;20000;-79
2022/11/18 06:26:04;;;;;;;13.02;7.93;;;;;;;;;;6268662;22;20012;-79
2022/11/18 06:28:29;;;;;;;13.63;8.27;;;;;;;;;;6242745;23;20491;-79
2022/11/18 06:30:54;;;;;;;15.60;9.35;;;;;;;;;;6268656;22;20325;-79
2022/11/18 06:33:20;;;;;;;12.02;7.80;;;;;;;;;;6244623;23;20000;-79
2022/11/18 06:35:45;;;;;;;12.98;7.80;;;;;;;;;;6268637;22;20091;-80
2022/11/18 06:38:11;;;;;;;12.82;8.20;;;;;;;;;;6268761;22;20004;-80
2022/11/18 06:40:37;;;;;;;12.57;7.05;;;;;;;;;;6244839;22;20397;-80
2022/11/18 06:48:34;;;;;;;12.55;7.97;;;;;;;;;;6244519;23;20026;-79
2022/11/18 06:50:59;;;;;;;14.52;8.20;;;;;;;;;;6245488;23;20370;-80
2022/11/18 06:53:25;;;;;;;13.88;8.60;;;;;;;;;;6243358;23;20042;-80
2022/11/18 06:55:50;;;;;;;14.68;9.00;;;;;;;;;;6244383;23;20340;-79
2022/11/18 06:58:16;;;;;;;14.50;8.63;;;;;;;;;;6268441;22;20317;-81
2022/11/18 07:00:41;;;;;;;12.27;7.85;;;;;;;;;;6268472;22;20011;-81
2022/11/18 07:03:07;;;;;;;16.08;8.73;;;;;;;;;;6268892;22;20039;-80
2022/11/18 07:05:32;;;;;;;14.38;8.57;;;;;;;;;;6244519;22;19996;-80
2022/11/18 07:07:58;;;;;;;14.30;9.77;;;;;;;;;;6268243;22;20452;-79
2022/11/18 07:10:24;;;;;;;11.40;7.88;;;;;;;;;;6244819;22;20428;-81
2022/11/18 07:12:49;;;;;;;13.40;7.75;;;;;;;;;;6245407;22;20019;-81
2022/11/18 07:15:15;;;;;;;11.85;7.30;;;;;;;;;;6244900;23;20218;-79
2022/11/18 07:17:40;;;;;;;11.38;7.20;;;;;;;;;;6244742;23;20012;-80
2022/11/18 07:20:06;;;;;;;11.80;7.65;;;;;;;;;;6243526;23;20308;-80
2022/11/18 07:22:31;;;;;;;12.20;8.13;;;;;;;;;;6242967;22;20016;-80
2022/11/18 07:24:57;;;;;;;15.77;8.07;;;;;;;;;;6268405;22;20403;-80
2022/11/18 07:27:22;;;;;;;11.88;7.60;;;;;;;;;;6244393;23;20365;-79
2022/11/18 07:29:48;;;;;;;12.45;7.72;;;;;;;;;;6268105;22;20347;-80
2022/11/18 07:32:13;;;;;;;14.38;8.57;;;;;;;;;;6244445;23;19996;-80
2022/11/18 07:34:39;;;;;;;13.05;8.15;;;;;;;;;;6244549;23;20432;-80
2022/11/18 07:37:04;;;;;;;11.60;7.50;;;;;;;;;;6242527;23;20459;-80
2022/11/18 07:39:30;;;;;;;13.35;8.10;;;;;;;;;;6268304;22;20018;-80
2022/11/18 07:41:55;;;;;;;9.55;6.45;;;;;;;;;;6268264;22;20432;-81
2022/11/18 07:44:21;;;;;;;12.73;8.73;;;;;;;;;;6267969;22;20491;-79
2022/11/18 07:46:46;;;;;;;13.35;8.05;;;;;;;;;;6268149;22;20004;-79
2022/11/18 07:49:12;;;;;;;11.10;6.60;;;;;;;;;;6244106;23;20090;-80
2022/11/18 07:51:38;;;;;;;14.02;8.02;;;;;;;;;;6244285;22;20069;-80
2022/11/18 07:54:07;;;;;;;15.07;8.70;;;;;;;;;;6268457;22;20016;-79
2022/11/18 07:56:32;;;;;;;12.00;7.78;;;;;;;;;;6267976;22;20000;-80
2022/11/18 07:58:58;;;;;;;18.13;10.30;;;;;;;;;;6273501;22;20455;-80
2022/11/18 08:01:24;;;;;;;14.30;8.40;;;;;;;;;;6273804;22;20015;-80
2022/11/18 08:03:49;;;;;;;14.75;8.23;;;;;;;;;;6273273;22;20015;-80
2022/11/18 08:06:16;;;;;;;12.30;7.55;;;;;;;;;;6248040;22;20029;-79
2022/11/18 08:08:41;;;;;;;13.63;8.35;;;;;;;;;;6248240;22;20012;-79
2022/11/18 08:11:07;;;;;;;12.52;7.32;;;;;;;;;;6273457;22;20055;-80
2022/11/18 08:13:34;;;;;;;13.13;7.70;;;;;;;;;;6275168;22;20007;-80
2022/11/18 08:15:59;;;;;;;14.98;9.35;;;;;;;;;;6273019;22;20014;-79
2022/11/18 08:18:26;;;;;;;13.40;8.30;;;;;;;;;;6247429;22;20471;-80
2022/11/18 08:20:52;;;;;;;11.40;7.60;;;;;;;;;;6272787;22;20007;-80
2022/11/18 08:23:17;;;;;;;11.70;6.75;;;;;;;;;;6273216;22;20450;-80
2022/11/18 08:25:43;;;;;;;14.35;7.60;;;;;;;;;;6246959;22;20336;-79
2022/11/18 08:28:08;;;;;;;11.95;7.95;;;;;;;;;;6274819;22;20019;-81
2022/11/18 08:30:34;;;;;;;13.85;8.55;;;;;;;;;;6272301;22;20003;-79
2022/11/18 08:33:00;;;;;;;14.70;9.52;;;;;;;;;;6272596;22;20431;-79
2022/11/18 08:35:25;;;;;;;11.02;7.65;;;;;;;;;;6273180;22;19999;-79
2022/11/18 08:37:51;;;;;;;11.85;7.03;;;;;;;;;;6272548;22;20355;-80
2022/11/18 08:40:16;;;;;;;13.38;7.75;;;;;;;;;;6272763;22;20007;-80
2022/11/18 08:42:42;;;;;;;11.50;7.15;;;;;;;;;;6273302;22;20499;-81
2022/11/18 08:45:07;;;;;;;12.55;8.02;;;;;;;;;;6275241;22;20074;-80
2022/11/18 08:47:33;;;;;;;12.05;7.32;;;;;;;;;;6247312;22;20014;-80
2022/11/18 08:49:59;;;;;;;12.07;7.78;;;;;;;;;;6248027;22;20006;-80
2022/11/18 08:52:24;;;;;;;11.05;7.38;;;;;;;;;;6275033;22;20008;-80
2022/11/18 08:54:50;;;;;;;12.38;7.70;;;;;;;;;;6247627;22;20003;-79
2022/11/18 08:57:15;;;;;;;13.07;8.18;;;;;;;;;;6275947;22;20069;-81
2022/11/18 08:59:41;;;;;;;13.32;7.45;;;;;;;;;;6255256;22;20078;-80
2022/11/18 09:02:17;;;;;;;10.88;7.55;;;;;;;;;;6218199;23;20026;-81
2022/11/18 09:04:42;;;;;;;11.68;7.30;;;;;;;;;;6268227;22;20012;-81
2022/11/18 09:07:08;;;;;;;13.45;7.00;;;;;;;;;;6244026;22;20011;-81
2022/11/18 09:09:34;;;;;;;11.15;6.82;;;;;;;;;;6246445;23;20133;-81
2022/11/18 09:11:59;;;;;;;12.35;7.60;;;;;;;;;;6246876;23;20313;-80
2022/11/18 09:14:25;;;;;;;11.80;6.95;;;;;;;;;;6241504;23;20023;-79
2022/11/18 09:16:50;;;;;;;11.07;6.93;;;;;;;;;;6243441;22;20027;-80
2022/11/18 09:19:16;;;;;;;13.63;7.93;;;;;;;;;;6267664;22;20115;-80
2022/11/18 09:21:41;;;;;;;13.65;7.93;;;;;;;;;;6267168;22;20000;-81
2022/11/18 09:24:07;;;;;;;10.05;6.50;;;;;;;;;;6267177;22;20400;-80
2022/11/18 09:26:33;;;;;;;9.10;6.70;;;;;;;;;;6243410;22;20004;-79
2022/11/18 09:28:58;;;;;;;11.88;6.72;;;;;;;;;;6267383;22;20008;-80
2022/11/18 09:31:24;;;;;;;12.38;7.93;;;;;;;;;;6268148;22;20003;-79
2022/11/18 09:33:49;;;;;;;14.45;8.27;;;;;;;;;;6245070;22;20012;-80
2022/11/18 09:36:21;;;;;;;13.98;9.07;;;;;;;;;;6245518;22;20091;-81
2022/11/18 09:38:47;;;;;;;17.58;9.85;;;;;;;;;;6245547;22;20004;-81
2022/11/18 09:41:31;;;;;;;19.83;12.27;;;;;;;;;;6243743;22;20007;-81
2022/11/18 09:44:15;;;;;;;15.05;7.93;;;;;;;;;;6245649;23;20008;-81
2022/11/18 09:46:47;;;;;;;12.27;8.40;;;;;;;;;;6245337;22;20416;-79
2022/11/18 09:49:21;;;;;;;16.02;9.00;;;;;;;;;;6245158;22;20012;-80
2022/11/18 09:51:47;;;;;;;14.40;8.05;;;;;;;;;;6269408;22;20050;-81
2022/11/18 09:54:12;;;;;;;;;;;;;;;;;;6246390;22;20050;-80
2022/11/18 09:56:38;;;;;;;12.95;8.38;;;;;;;;;;6244315;23;19907;-80
2022/11/18 09:59:04;;;;;;;12.77;7.82;;;;;;;;;;6274806;22;20023;-81
2022/11/18 10:01:30;;;;;;;12.23;8.13;;;;;;;;;;6274891;22;20023;-80
2022/11/18 10:03:55;;;;;;;13.10;7.95;;;;;;;;;;6275936;22;20217;-80
2022/11/18 10:06:25;;;;;;;15.55;8.98;;;;;;;;;;6274215;22;20015;-81
2022/11/18 10:08:57;;;;;;;11.98;7.95;;;;;;;;;;6248424;22;20042;-81
2022/11/18 10:11:23;;;;;;;13.82;8.30;;;;;;;;;;6276146;22;20386;-79
2022/11/18 10:13:48;;;;;;;;;;;;;;;;;;6274490;22;20000;-79
2022/11/18 10:16:17;;;;;;;13.07;7.95;;;;;;;;;;6275578;22;19914;-79
2022/11/18 10:18:53;;;;;;;12.45;7.10;;;;;;;;;;6247868;22;20006;-79
2022/11/18 10:21:38;;;;;;;11.65;7.72;;;;;;;;;;6274080;22;20004;-81
2022/11/18 10:24:12;;;;;;;15.57;8.93;;;;;;;;;;6275286;22;20117;-80
2022/11/18 10:26:38;;;;;;;13.85;7.82;;;;;;;;;;6273240;22;20403;-80
2022/11/18 10:29:06;;;;;;;;;;;;;;;;;;6274193;22;20006;-80
2022/11/18 10:31:31;;;;;;;13.25;8.55;;;;;;;;;;6248248;22;19993;-79
2022/11/18 10:33:58;;;;;;;14.90;9.63;;;;;;;;;;6275835;22;20034;-81
2022/11/18 10:36:23;;;;;;;14.40;9.40;;;;;;;;;;6274229;22;20022;-80
2022/11/18 10:38:49;;;;;;;15.60;9.30;;;;;;;;;;6276265;22;20074;-82
2022/11/18 10:41:16;;;;;;;12.45;8.18;;;;;;;;;;6273908;22;20042;-80
2022/11/18 10:43:46;;;;;;;12.63;7.63;;;;;;;;;;6274216;22;20138;-79
2022/11/18 10:46:22;;;;;;;12.90;7.15;;;;;;;;;;6249037;22;20015;-81
2022/11/18 10:48:52;;;;;;;12.25;8.30;;;;;;;;;;6274752;22;20026;-79
2022/11/18 10:51:22;;;;;;;13.13;8.07;;;;;;;;;;6273909;22;20443;-80
2022/11/18 10:53:47;;;;;;;11.50;7.43;;;;;;;;;;6249287;22;20347;-80
2022/11/18 10:56:14;;;;;;;13.23;7.75;;;;;;;;;;6275780;22;19999;-81
2022/11/18 10:58:44;;;;;;;11.05;7.70;;;;;;;;;;6274271;22;20074;-79
2022/11/18 11:01:23;;;;;;;11.00;6.97;;;;;;;;;;6273525;22;20007;-80
2022/11/18 11:04:11;;;;;;;12.82;7.38;;;;;;;;;;6274356;22;20080;-81
2022/11/18 11:06:37;;;;;;;13.13;7.38;;;;;;;;;;6274026;22;20011;-79
2022/11/18 11:09:14;;;;;;;11.30;7.93;;;;;;;;;;6275199;22;20000;-80
2022/11/18 11:11:44;;;;;;;14.43;7.88;;;;;;;;;;6248766;22;20432;-80
2022/11/18 11:14:20;;;;;;;11.60;7.80;;;;;;;;;;6274571;22;20000;-80
2022/11/18 11:16:55;;;;;;;11.18;7.53;;;;;;;;;;6248196;22;20081;-80
2022/11/18 11:19:22;;;;;;;14.23;7.65;;;;;;;;;;6275629;22;20059;-80
2022/11/18 11:21:47;;;;;;;11.13;7.55;;;;;;;;;;6274306;22;20427;-80
2022/11/18 11:24:13;;;;;;;12.00;7.47;;;;;;;;;;6274259;22;20007;-79
2022/11/18 11:26:53;;;;;;;11.52;7.50;;;;;;;;;;6273826;22;20098;-80
2022/11/18 11:29:37;;;;;;;13.73;7.90;;;;;;;;;;6274130;22;20431;-80
2022/11/18 11:32:05;;;;;;;11.95;7.70;;;;;;;;;;6274768;22;20017;-78
2022/11/18 11:34:31;;;;;;;15.20;8.07;;;;;;;;;;6275273;22;20050;-80
2022/11/18 11:36:56;;;;;;;18.83;11.50;;;;;;;;;;6248527;22;20015;-80
2022/11/18 11:39:41;;;;;;;14.50;8.50;;;;;;;;;;6248369;22;20000;-81
2022/11/18 11:42:10;;;;;;;15.07;8.98;;;;;;;;;;6247660;22;20111;-80
2022/11/18 11:44:55;;;;;;;15.07;8.70;;;;;;;;;;6273771;22;20016;-80
2022/11/18 11:47:45;;;;;;;13.65;7.90;;;;;;;;;;6248660;22;20070;-80
2022/11/18 11:50:18;;;;;;;14.75;9.38;;;;;;;;;;6273839;22;20004;-80
2022/11/18 11:53:04;;;;;;;18.58;9.60;;;;;;;;;;6273281;22;20530;-81
2022/11/18 11:55:32;;;;;;;16.77;9.32;;;;;;;;;;6247249;22;20011;-81
2022/11/18 11:58:04;;;;;;;17.27;9.13;;;;;;;;;;6274202;22;20099;-80
2022/11/18 12:00:31;;;;;;;13.80;8.93;;;;;;;;;;6247971;22;20029;-81
2022/11/18 12:03:00;;;;;;;14.60;8.93;;;;;;;;;;6273289;22;20098;-79
2022/11/18 12:05:37;;;;;;;14.98;9.65;;;;;;;;;;6273462;22;20019;-79
2022/11/18 12:08:12;;;;;;;15.48;8.68;;;;;;;;;;6273107;22;20012;-78
2022/11/18 12:10:44;;;;;;;15.25;9.35;;;;;;;;;;6247843;22;20011;-81
2022/11/18 12:13:19;;;;;;;15.35;9.68;;;;;;;;;;6247843;22;20014;-81
2022/11/18 12:16:23;;;;;;;14.38;9.55;;;;;;;;;;6247520;22;20332;-81
2022/11/18 12:18:58;;;;;;;13.60;7.72;;;;;;;;;;6126611;23;20017;-80
2022/11/18 12:21:43;;;;;;;16.00;9.57;;;;;;;;;;6126850;23;20014;-81
2022/11/18 12:24:21;;;;;;;17.42;9.52;;;;;;;;;;6206574;22;20114;-81
2022/11/18 12:26:47;;;;;;;17.20;10.10;;;;;;;;;;6274356;22;20011;-81
2022/11/18 12:29:19;;;;;;;14.63;9.32;;;;;;;;;;6273662;22;20332;-80
2022/11/18 12:31:45;;;;;;;19.55;9.90;;;;;;;;;;6274274;22;20007;-81
2022/11/18 12:34:37;;;;;;;18.38;10.00;;;;;;;;;;6272956;22;19999;-80
2022/11/18 12:37:32;;;;;;;23.52;10.30;;;;;;;;;;6243358;22;20015;-78
2022/11/18 12:39:58;;;;;;;15.00;9.85;;;;;;;;;;6253795;22;20068;-81
2022/11/18 12:45:26;;;;;;;18.95;10.68;;;;;;;;;;6274374;22;20283;-81
2022/11/18 12:47:51;;;;;;;19.58;11.15;;;;;;;;;;6272613;22;20495;-80
2022/11/18 12:50:17;;;;;;;16.85;10.40;;;;;;;;;;6221950;22;20038;-80
2022/11/18 12:52:42;;;;;;;17.52;9.88;;;;;;;;;;6274019;22;20065;-80
2022/11/18 12:55:18;;;;;;;19.38;10.07;;;;;;;;;;6273795;22;20395;-80
2022/11/18 12:57:43;;;;;;;17.10;10.05;;;;;;;;;;6272630;22;20353;-79
2022/11/18 13:00:21;;;;;;;16.88;9.63;;;;;;;;;;6247450;22;20024;-79
2022/11/18 13:02:50;;;;;;;19.17;10.73;;;;;;;;;;6241694;23;20012;-81
2022/11/18 13:05:20;;;;;;;17.33;9.98;;;;;;;;;;6241463;22;20010;-82
2022/11/18 13:08:14;;;;;;;16.15;9.52;;;;;;;;;;6262611;22;20023;-81
2022/11/18 13:10:46;;;;;;;17.10;10.02;;;;;;;;;;6266701;22;20012;-80
2022/11/18 13:13:20;;;;;;;15.55;10.23;;;;;;;;;;6243215;23;20008;-79
2022/11/18 13:18:30;;;;;;;17.25;9.43;;;;;;;;;;6263797;22;20008;-80
2022/11/18 13:20:56;;;;;;;17.10;9.63;;;;;;;;;;6242080;23;20050;-80
2022/11/18 13:26:18;;;;;;;15.77;9.60;;;;;;;;;;6243504;22;19911;-80
2022/11/18 13:28:49;;;;;;;13.77;9.15;;;;;;;;;;6242944;22;20095;-80
2022/11/18 13:31:17;;;;;;;15.57;10.13;;;;;;;;;;6243370;22;20008;-79
2022/11/18 13:33:43;;;;;;;16.92;9.60;;;;;;;;;;6267745;22;19996;-81
2022/11/18 13:36:15;;;;;;;20.13;10.90;;;;;;;;;;6268027;22;20070;-79
2022/11/18 13:38:43;;;;;;;21.25;10.18;;;;;;;;;;6243489;22;20405;-80
2022/11/18 13:41:21;;;;;;;16.77;9.98;;;;;;;;;;6266979;22;20003;-81
2022/11/18 13:43:46;;;;;;;20.08;10.57;;;;;;;;;;6265839;22;20053;-81
2022/11/18 13:46:13;;;;;;;19.95;10.88;;;;;;;;;;6267531;22;20336;-80
2022/11/18 13:48:39;;;;;;;17.02;10.95;;;;;;;;;;6241913;23;20016;-80
2022/11/18 13:51:05;;;;;;;;;;;;;;;;;;6242458;23;20000;-80
2022/11/18 13:53:32;;;;;;;23.13;11.05;;;;;;;;;;6243550;22;20318;-82
2022/11/18 13:56:00;;;;;;;33.55;10.20;;;;;;;;;;6266901;22;20004;-79
2022/11/18 13:58:30;;;;;;;17.15;10.18;;;;;;;;;;6241550;22;20024;-80
2022/11/18 14:00:56;;;;;;;14.20;9.45;;;;;;;;;;6242921;22;20460;-80
2022/11/18 14:03:29;;;;;;;19.67;10.25;;;;;;;;;;6266756;22;20069;-81
2022/11/18 14:05:54;;;;;;;21.77;10.30;;;;;;;;;;6266821;22;20356;-80
2022/11/18 14:08:30;;;;;;;16.95;10.05;;;;;;;;;;6266819;22;20005;-80
2022/11/18 14:10:57;;;;;;;17.38;9.45;;;;;;;;;;6267504;22;20483;-80
2022/11/18 14:13:46;;;;;;;18.38;9.68;;;;;;;;;;6241852;23;20015;-81
2022/11/18 14:16:17;;;;;;;16.92;9.23;;;;;;;;;;6231659;22;20351;-79
2022/11/18 14:18:47;;;;;;;18.17;10.02;;;;;;;;;;6245181;23;20102;-81
2022/11/18 14:21:12;;;;;;;17.52;10.63;;;;;;;;;;6245354;22;20019;-81
2022/11/18 14:23:41;;;;;;;17.40;10.05;;;;;;;;;;6243434;23;20107;-80
2022/11/18 14:26:06;;;;;;;14.38;9.48;;;;;;;;;;6243762;23;20404;-80
2022/11/18 14:28:32;;;;;;;13.95;9.52;;;;;;;;;;6243532;23;20022;-80
2022/11/18 14:31:02;;;;;;;13.38;7.82;;;;;;;;;;6268848;22;20000;-80
2022/11/18 14:33:28;;;;;;;16.02;9.65;;;;;;;;;;6244951;22;20008;-81
2022/11/18 14:35:54;;;;;;;;;;;;;;;;;;6269523;22;20070;-80
2022/11/18 14:38:49;;;;;;;13.55;9.35;;;;;;;;;;6243465;23;19911;-80
2022/11/18 14:41:15;;;;;;;14.30;9.02;;;;;;;;;;6225353;22;20040;-79
2022/11/18 14:43:44;;;;;;;17.48;9.38;;;;;;;;;;6268861;22;20007;-81
2022/11/18 14:46:11;;;;;;;18.17;9.30;;;;;;;;;;6267680;22;20050;-80
2022/11/18 14:48:37;;;;;;;16.95;9.10;;;;;;;;;;6268820;22;20043;-80
2022/11/18 14:51:03;;;;;;;;;;;;;;;;;;6268950;22;20015;-80
2022/11/18 14:53:28;;;;;;;13.27;8.80;;;;;;;;;;6244047;23;19903;-80
2022/11/18 14:55:55;;;;;;;16.48;8.88;;;;;;;;;;6244724;23;20099;-80
2022/11/18 14:58:20;;;;;;;15.20;9.80;;;;;;;;;;6245074;22;20440;-80
2022/11/18 15:00:46;;;;;;;14.07;7.95;;;;;;;;;;6244845;22;20020;-80
2022/11/18 15:03:12;;;;;;;;;;;;;;;;;;6269665;22;20016;-80